Time;durP1;ratioP1;P1;durP2;ratioP2;P2;SDS_P1;SDS_P2;PMS_P1;PMS_P2;Temp;Humidity;BMP_temperature;BMP_pressure;BME280_temperature;BME280_humidity;BME280_pressure;Samples;Min_cycle;Max_cycle;Signal;HPM_P1;HPM_P2
2024/03/20 00:02:16;;;;;;;;;;;;;;;1.87;88.67;94968.53;10306718;28;20005;-82
2024/03/20 00:07:17;;;;;;;;;;;;;;;1.81;89.13;94968.56;10294599;28;20399;-81
2024/03/20 00:12:17;;;;;;;;;;;;;;;1.94;90.88;94967.69;10327084;28;19913;-81
2024/03/20 00:17:17;;;;;;;;;;;;;;;2.04;91.33;94965.38;10308204;28;20373;-79
2024/03/20 00:22:18;;;;;;;;;;;;;;;1.96;89.15;94966.44;10307030;28;19914;-80
2024/03/20 00:27:18;;;;;;;;;;;;;;;1.74;91.00;94979.19;10304447;28;19932;-81
2024/03/20 00:32:18;;;;;;;;;;;;;;;1.74;91.52;94979.19;10307354;28;19964;-79
2024/03/20 00:37:18;;;;;;;;;;;;;;;1.70;93.27;94976.19;10308178;28;19918;-81
2024/03/20 00:42:19;;;;;;;;;;;;;;;1.52;93.26;94976.03;10320431;28;19910;-79
2024/03/20 00:47:20;;;;;;;;;;;;;;;1.40;93.13;94973.25;10306393;28;19924;-81
2024/03/20 00:52:30;;;;;;;;;;;;;;;1.35;96.63;94973.06;10307457;28;19972;-81
2024/03/20 00:57:30;;;;;;;;;;;;;;;1.50;98.59;94970.94;10294488;28;20312;-82
2024/03/20 01:02:31;;;;;;;;;;;;;;;1.57;97.16;94970.94;10307992;28;19936;-81
2024/03/20 01:07:31;;;;;;;;;;;;;;;1.47;98.34;94976.69;10293433;28;20036;-81
2024/03/20 01:12:32;;;;;;;;;;;;;;;1.39;98.41;94976.91;10306957;28;19910;-81
2024/03/20 01:17:33;;;;;;;;;;;;;;;1.52;98.94;94978.69;10306893;28;19920;-79
2024/03/20 01:22:35;;;;;;;;;;;;;;;1.52;98.88;94971.56;10305678;28;20284;-78
2024/03/20 01:27:35;;;;;;;;;;;;;;;1.48;100.00;94978.31;10307079;28;20025;-80
2024/03/20 01:32:40;;;;;;;;;;;;;;;1.60;97.44;94969.69;10306059;28;20008;-79
2024/03/20 01:37:40;;;;;;;;;;;;;;;1.65;100.00;94970.69;10335004;28;20012;-79
2024/03/20 01:42:40;;;;;;;;;;;;;;;1.60;100.00;94972.34;10306038;28;20343;-79
2024/03/20 01:47:41;;;;;;;;;;;;;;;1.44;100.00;94977.09;10307630;28;19917;-81
2024/03/20 01:52:55;;;;;;;;;;;;;;;1.43;100.00;94967.53;10290764;28;19910;-79
2024/03/20 01:57:55;;;;;;;;;;;;;;;1.48;100.00;94973.00;10324595;28;19917;-81
2024/03/20 02:02:59;;;;;;;;;;;;;;;1.37;100.00;94971.03;10342023;28;19920;-81
2024/03/20 02:07:59;;;;;;;;;;;;;;;1.41;100.00;94960.81;10326649;28;19913;-80
2024/03/20 02:13:01;;;;;;;;;;;;;;;1.33;100.00;94967.16;10289815;28;20467;-80
2024/03/20 02:18:02;;;;;;;;;;;;;;;1.39;100.00;94970.81;10313729;28;20343;-81
2024/03/20 02:23:02;;;;;;;;;;;;;;;1.09;100.00;94980.06;10313821;28;19937;-81
2024/03/20 02:28:03;;;;;;;;;;;;;;;1.06;100.00;94977.84;10295509;28;19917;-81
2024/03/20 02:33:03;;;;;;;;;;;;;;;1.14;100.00;94977.59;10311147;28;20399;-80
2024/03/20 02:38:03;;;;;;;;;;;;;;;1.12;100.00;94977.00;10311731;28;19925;-79
2024/03/20 02:43:04;;;;;;;;;;;;;;;0.96;100.00;94977.44;10311575;28;19910;-79
2024/03/20 02:48:04;;;;;;;;;;;;;;;1.10;100.00;94984.31;10311214;28;20320;-79
2024/03/20 02:53:04;;;;;;;;;;;;;;;1.19;100.00;94983.09;10311674;28;19956;-79
2024/03/20 02:58:05;;;;;;;;;;;;;;;1.27;100.00;94989.16;10311159;28;20361;-80
2024/03/20 03:03:05;;;;;;;;;;;;;;;1.35;100.00;94986.28;10293374;28;20274;-79
2024/03/20 03:08:06;;;;;;;;;;;;;;;1.34;100.00;94995.25;10311872;28;19910;-78
2024/03/20 03:13:06;;;;;;;;;;;;;;;1.29;100.00;94990.59;10310773;28;20297;-79
2024/03/20 03:18:06;;;;;;;;;;;;;;;1.30;100.00;95000.16;10326376;28;19920;-79
2024/03/20 03:23:07;;;;;;;;;;;;;;;1.34;100.00;94996.09;10310867;28;20340;-77
2024/03/20 03:28:07;;;;;;;;;;;;;;;1.34;100.00;95003.19;10330915;28;19910;-79
2024/03/20 03:33:07;;;;;;;;;;;;;;;1.32;100.00;95003.41;10329040;28;19910;-79
2024/03/20 03:38:07;;;;;;;;;;;;;;;1.36;100.00;95011.75;10319803;28;19940;-81
2024/03/20 03:43:08;;;;;;;;;;;;;;;1.39;100.00;95019.28;10291391;28;19920;-82
2024/03/20 03:48:08;;;;;;;;;;;;;;;1.30;100.00;95023.19;10309599;28;20278;-82
2024/03/20 03:53:08;;;;;;;;;;;;;;;1.30;100.00;95028.50;10295832;28;19918;-83
2024/03/20 03:58:08;;;;;;;;;;;;;;;1.34;100.00;95034.97;10306232;28;19928;-82
2024/03/20 04:03:11;;;;;;;;;;;;;;;1.16;100.00;95038.28;10307668;28;19922;-83
2024/03/20 04:08:11;;;;;;;;;;;;;;;1.28;100.00;95041.09;10305853;28;19910;-82
2024/03/20 04:13:11;;;;;;;;;;;;;;;1.18;100.00;95038.88;10309244;28;19910;-81
2024/03/20 04:18:12;;;;;;;;;;;;;;;0.84;100.00;95043.41;10307362;28;20533;-82
2024/03/20 04:23:12;;;;;;;;;;;;;;;0.90;100.00;95049.72;10329705;28;19917;-82
2024/03/20 04:28:12;;;;;;;;;;;;;;;0.82;100.00;95043.63;10290802;28;19910;-82
2024/03/20 04:33:13;;;;;;;;;;;;;;;0.71;100.00;95046.84;10307669;28;19917;-80
2024/03/20 04:38:13;;;;;;;;;;;;;;;0.66;100.00;95058.06;10309062;28;20353;-79
2024/03/20 04:43:13;;;;;;;;;;;;;;;0.69;100.00;95059.50;10307840;28;19913;-79
2024/03/20 04:48:13;;;;;;;;;;;;;;;0.84;100.00;95068.03;10330102;28;19927;-80
2024/03/20 04:53:14;;;;;;;;;;;;;;;1.01;100.00;95070.28;10307003;28;19973;-78
2024/03/20 04:58:14;;;;;;;;;;;;;;;1.23;100.00;95075.31;10307092;28;19929;-79
2024/03/20 05:03:14;;;;;;;;;;;;;;;1.33;100.00;95078.38;10319061;28;19921;-78
2024/03/20 05:08:15;;;;;;;;;;;;;;;1.53;100.00;95083.63;10308583;28;19952;-78
2024/03/20 05:13:15;;;;;;;;;;;;;;;1.66;100.00;95088.06;10308007;28;20273;-78
2024/03/20 05:18:15;;;;;;;;;;;;;;;1.73;100.00;95094.19;10306107;28;20388;-78
2024/03/20 05:23:15;;;;;;;;;;;;;;;1.87;100.00;95094.91;10297950;28;19972;-79
2024/03/20 05:28:16;;;;;;;;;;;;;;;2.09;100.00;95100.75;10302680;28;19941;-77
2024/03/20 05:33:17;;;;;;;;;;;;;;;2.33;100.00;95104.53;10291656;28;19909;-79
2024/03/20 05:38:17;;;;;;;;;;;;;;;3.07;100.00;95101.41;10310861;28;19925;-78
2024/03/20 05:43:17;;;;;;;;;;;;;;;3.82;92.78;95105.75;10311977;28;20354;-79
2024/03/20 05:48:18;;;;;;;;;;;;;;;4.21;81.34;95108.19;10309998;28;20427;-78
2024/03/20 05:53:18;;;;;;;;;;;;;;;5.01;79.52;95115.09;10306689;28;19913;-78
2024/03/20 05:58:19;;;;;;;;;;;;;;;5.91;67.70;95107.00;10309113;28;19956;-78
2024/03/20 06:03:19;;;;;;;;;;;;;;;6.42;63.13;95118.75;10293356;28;19924;-78
2024/03/20 06:08:19;;;;;;;;;;;;;;;7.16;61.46;95114.47;10309590;28;19914;-81
2024/03/20 06:13:19;;;;;;;;;;;;;;;7.25;59.98;95110.31;10306987;28;19910;-79
2024/03/20 06:18:20;;;;;;;;;;;;;;;7.44;59.42;95116.25;10302953;28;20432;-78
2024/03/20 06:23:20;;;;;;;;;;;;;;;8.16;57.97;95119.94;10306327;28;19932;-80
2024/03/20 06:28:20;;;;;;;;;;;;;;;8.81;53.33;95122.06;10287614;28;19924;-79
2024/03/20 06:33:20;;;;;;;;;;;;;;;8.98;52.51;95125.44;10298658;28;19914;-78
2024/03/20 06:38:21;;;;;;;;;;;;;;;8.66;52.48;95141.44;10307489;28;20016;-78
2024/03/20 06:43:22;;;;;;;;;;;;;;;8.62;53.81;95149.16;10304834;28;20353;-78
2024/03/20 06:48:26;;;;;;;;;;;;;;;8.87;52.41;95150.50;10309725;28;19920;-79
2024/03/20 06:53:27;;;;;;;;;;;;;;;9.11;52.80;95160.94;10309309;28;19909;-79
2024/03/20 06:58:27;;;;;;;;;;;;;;;10.45;49.90;95146.63;10305736;28;20393;-77
2024/03/20 07:03:27;;;;;;;;;;;;;;;10.46;47.27;95153.63;10306562;28;19913;-79
2024/03/20 07:08:30;;;;;;;;;;;;;;;10.06;49.39;95155.81;10305955;28;20001;-78
2024/03/20 07:13:30;;;;;;;;;;;;;;;11.53;44.95;95146.09;10306449;28;19917;-79
2024/03/20 07:18:32;;;;;;;;;;;;;;;11.81;43.83;95152.81;10306604;28;19924;-80
2024/03/20 07:23:32;;;;;;;;;;;;;;;12.50;43.04;95150.56;10285112;28;19913;-77
2024/03/20 07:28:37;;;;;;;;;;;;;;;13.27;42.42;95161.00;10334560;28;19917;-79
2024/03/20 07:33:38;;;;;;;;;;;;;;;14.21;40.06;95148.38;10294490;28;19909;-78
2024/03/20 07:38:38;;;;;;;;;;;;;;;14.24;38.74;95152.41;10302650;28;19917;-78
2024/03/20 07:43:40;;;;;;;;;;;;;;;14.43;39.04;95150.59;10285447;28;19935;-81
2024/03/20 07:48:43;;;;;;;;;;;;;;;14.87;38.79;95129.81;10300471;28;19913;-79
2024/03/20 07:53:44;;;;;;;;;;;;;;;15.14;38.39;95141.91;10305090;28;20646;-78
2024/03/20 07:58:44;;;;;;;;;;;;;;;16.05;37.56;95129.97;10303552;28;19922;-78
2024/03/20 08:03:48;;;;;;;;;;;;;;;15.72;36.29;95148.91;10306793;28;19920;-79
2024/03/20 08:08:49;;;;;;;;;;;;;;;15.21;37.71;95143.16;10308369;28;20334;-79
2024/03/20 08:13:49;;;;;;;;;;;;;;;16.28;36.26;95149.88;10306137;28;19988;-79
2024/03/20 08:18:49;;;;;;;;;;;;;;;17.11;35.98;95151.03;10305109;28;19914;-77
2024/03/20 08:23:50;;;;;;;;;;;;;;;16.34;36.04;95137.84;10307118;28;19909;-78
2024/03/20 08:28:51;;;;;;;;;;;;;;;16.70;36.43;95117.34;10305161;28;19995;-79
2024/03/20 08:33:52;;;;;;;;;;;;;;;14.25;37.35;95127.81;10307615;28;19918;-79
2024/03/20 08:38:52;;;;;;;;;;;;;;;12.44;43.36;95135.50;10306287;28;19917;-79
2024/03/20 08:43:53;;;;;;;;;;;;;;;12.06;46.92;95140.44;10302486;28;19913;-80
2024/03/20 08:48:54;;;;;;;;;;;;;;;11.68;46.42;95145.28;10284703;28;20005;-80
2024/03/20 08:53:54;;;;;;;;;;;;;;;11.93;45.71;95142.59;10306206;28;19917;-78
2024/03/20 08:58:54;;;;;;;;;;;;;;;11.77;45.95;95141.78;10304119;28;20652;-80
2024/03/20 09:03:55;;;;;;;;;;;;;;;11.10;47.76;95135.56;10306494;28;20373;-80
2024/03/20 09:08:56;;;;;;;;;;;;;;;11.08;49.52;95143.91;10314133;28;19952;-79
2024/03/20 09:13:58;;;;;;;;;;;;;;;11.14;51.42;95136.66;10296277;28;20000;-79
2024/03/20 09:18:58;;;;;;;;;;;;;;;11.28;51.16;95132.34;10311233;28;19962;-78
2024/03/20 09:23:59;;;;;;;;;;;;;;;11.52;48.76;95139.09;10312083;28;19917;-80
2024/03/20 09:28:59;;;;;;;;;;;;;;;11.32;52.00;95129.16;10313556;28;20272;-78
2024/03/20 09:33:59;;;;;;;;;;;;;;;11.50;51.34;95131.31;10313499;28;19921;-78
2024/03/20 09:39:00;;;;;;;;;;;;;;;11.10;49.03;95120.22;10312380;28;19924;-78
2024/03/20 09:44:00;;;;;;;;;;;;;;;12.06;47.85;95114.31;10313262;28;20682;-81
2024/03/20 09:49:01;;;;;;;;;;;;;;;12.85;45.50;95102.97;10292438;28;19933;-80
2024/03/20 09:54:01;;;;;;;;;;;;;;;13.47;41.03;95094.47;10314098;28;19992;-79
2024/03/20 09:59:02;;;;;;;;;;;;;;;16.43;38.24;95088.34;10313031;28;19921;-79
2024/03/20 10:04:06;;;;;;;;;;;;;;;19.93;34.72;95071.03;10311291;28;20352;-77
2024/03/20 10:09:10;;;;;;;;;;;;;;;22.19;28.28;95059.75;10306928;28;20328;-78
2024/03/20 10:14:11;;;;;;;;;;;;;;;22.19;28.31;95058.94;10310964;28;19918;-79
2024/03/20 10:19:12;;;;;;;;;;;;;;;23.49;27.15;95041.88;10312029;28;19914;-80
2024/03/20 10:24:13;;;;;;;;;;;;;;;24.70;25.75;95042.69;10294814;28;20369;-78
2024/03/20 10:29:15;;;;;;;;;;;;;;;25.69;25.02;95036.19;10312536;28;20009;-79
2024/03/20 10:34:16;;;;;;;;;;;;;;;25.83;23.26;95037.63;10309423;28;19920;-79
2024/03/20 10:39:23;;;;;;;;;;;;;;;24.73;23.14;95030.97;10312823;28;19925;-80
2024/03/20 10:44:23;;;;;;;;;;;;;;;20.96;26.46;95021.75;10309545;28;19909;-79
2024/03/20 10:49:24;;;;;;;;;;;;;;;23.35;26.40;95025.78;10311708;28;20335;-80
2024/03/20 10:54:25;;;;;;;;;;;;;;;22.86;24.42;95010.25;10310472;28;20683;-79
2024/03/20 10:59:27;;;;;;;;;;;;;;;20.65;26.55;95022.91;10309337;28;19914;-78
2024/03/20 11:04:30;;;;;;;;;;;;;;;20.77;29.40;95024.13;10306616;28;19964;-79
2024/03/20 11:09:31;;;;;;;;;;;;;;;23.59;24.37;95007.63;10307399;28;20373;-80
2024/03/20 11:14:33;;;;;;;;;;;;;;;23.54;25.01;94991.41;10311106;28;20320;-79
2024/03/20 11:19:34;;;;;;;;;;;;;;;22.98;25.46;94998.47;10309818;28;20294;-79
2024/03/20 11:24:34;;;;;;;;;;;;;;;24.27;25.64;94986.69;10292703;28;19910;-78
2024/03/20 11:29:34;;;;;;;;;;;;;;;24.10;24.94;94992.50;10304678;28;19917;-79
2024/03/20 11:34:35;;;;;;;;;;;;;;;23.68;24.61;94985.53;10304272;28;19973;-79
2024/03/20 11:39:35;;;;;;;;;;;;;;;18.33;29.82;94998.81;10307972;28;19941;-80
2024/03/20 11:44:36;;;;;;;;;;;;;;;14.47;35.46;95000.19;10307012;28;19932;-80
2024/03/20 11:49:44;;;;;;;;;;;;;;;12.52;40.61;95002.81;10310106;28;19967;-80
2024/03/20 11:54:45;;;;;;;;;;;;;;;12.21;39.85;94994.06;10306958;28;19971;-80
2024/03/20 11:59:45;;;;;;;;;;;;;;;11.73;41.28;94992.59;10305976;28;19914;-78
2024/03/20 12:04:47;;;;;;;;;;;;;;;11.76;42.52;94991.25;10308507;28;20312;-79
2024/03/20 12:09:47;;;;;;;;;;;;;;;11.97;43.09;94989.31;10309146;28;19909;-79
2024/03/20 12:14:51;;;;;;;;;;;;;;;12.55;43.74;94987.97;10308165;28;19921;-78
2024/03/20 12:19:51;;;;;;;;;;;;;;;12.79;42.88;94990.78;10305993;28;19914;-80
2024/03/20 12:24:53;;;;;;;;;;;;;;;13.07;41.51;94986.50;10307877;28;19910;-78
2024/03/20 12:29:53;;;;;;;;;;;;;;;12.56;42.02;94984.19;10306718;28;19922;-80
2024/03/20 12:34:53;;;;;;;;;;;;;;;12.50;41.19;94980.72;10287777;28;19971;-79
2024/03/20 12:39:54;;;;;;;;;;;;;;;12.19;41.89;94972.00;10308464;28;19949;-79
2024/03/20 12:44:54;;;;;;;;;;;;;;;12.14;42.75;94975.53;10306758;28;19914;-80
2024/03/20 12:49:57;;;;;;;;;;;;;;;12.26;43.20;94973.31;10312459;28;19918;-78
2024/03/20 12:54:58;;;;;;;;;;;;;;;12.26;44.58;94970.59;10308273;28;19989;-78
2024/03/20 12:59:58;;;;;;;;;;;;;;;12.14;41.84;94972.84;10327774;28;19916;-80
2024/03/20 13:05:00;;;;;;;;;;;;;;;12.66;42.33;94967.97;10330773;28;20409;-79
2024/03/20 13:10:00;;;;;;;;;;;;;;;12.81;40.70;94972.44;10311766;28;20448;-79
2024/03/20 13:15:01;;;;;;;;;;;;;;;13.20;41.16;94973.47;10286065;28;19992;-79
2024/03/20 13:20:03;;;;;;;;;;;;;;;13.35;41.87;94973.34;10304104;28;20364;-78
2024/03/20 13:25:10;;;;;;;;;;;;;;;13.15;42.07;94977.03;10304231;28;19916;-78
2024/03/20 13:30:11;;;;;;;;;;;;;;;12.95;40.76;94972.59;10304012;28;19922;-78
2024/03/20 13:35:14;;;;;;;;;;;;;;;12.50;43.46;94977.22;10340951;28;19917;-79
2024/03/20 13:40:32;;;;;;;;;;;;;;;12.37;42.07;94984.03;10313809;28;20005;-79
2024/03/20 13:45:37;;;;;;;;;;;;;;;12.81;40.59;94973.25;10310535;28;20353;-79
2024/03/20 13:50:37;;;;;;;;;;;;;;;12.93;41.19;94969.38;10308274;28;19909;-79
2024/03/20 13:55:37;;;;;;;;;;;;;;;12.42;41.12;94974.03;10311338;28;19910;-77
2024/03/20 14:00:38;;;;;;;;;;;;;;;12.65;43.84;94971.72;10307497;28;20319;-80
2024/03/20 14:05:39;;;;;;;;;;;;;;;13.00;42.03;94972.53;10313414;28;20619;-78
2024/03/20 14:10:39;;;;;;;;;;;;;;;12.76;41.82;94975.97;10311882;28;19909;-78
2024/03/20 14:15:40;;;;;;;;;;;;;;;12.63;41.45;94982.00;10312943;28;19935;-79
2024/03/20 14:20:40;;;;;;;;;;;;;;;12.60;41.85;94987.94;10311884;28;19928;-78
2024/03/20 14:25:41;;;;;;;;;;;;;;;12.65;42.49;94980.63;10322591;28;19920;-79
2024/03/20 14:30:41;;;;;;;;;;;;;;;12.58;42.23;94980.13;10312623;28;19910;-81
2024/03/20 14:35:41;;;;;;;;;;;;;;;12.38;42.05;94991.84;10321506;28;20284;-78
2024/03/20 14:40:41;;;;;;;;;;;;;;;12.25;41.10;94992.44;10305256;28;19909;-82
2024/03/20 14:45:41;;;;;;;;;;;;;;;12.08;41.81;94982.03;10293919;28;21018;-80
2024/03/20 14:50:45;;;;;;;;;;;;;;;12.09;41.44;94989.81;10310586;28;19909;-78
2024/03/20 14:55:45;;;;;;;;;;;;;;;12.25;43.22;94993.28;10307908;28;20288;-79
2024/03/20 15:00:46;;;;;;;;;;;;;;;12.21;42.04;94997.59;10306004;28;19924;-79
2024/03/20 15:05:46;;;;;;;;;;;;;;;12.14;41.39;94997.09;10285485;28;20309;-78
2024/03/20 15:10:46;;;;;;;;;;;;;;;12.09;42.92;94999.81;10310197;28;20368;-79
2024/03/20 15:15:46;;;;;;;;;;;;;;;11.93;41.67;95002.53;10309073;28;19914;-81
2024/03/20 15:20:47;;;;;;;;;;;;;;;11.81;42.62;95012.78;10299162;28;19920;-79
2024/03/20 15:25:48;;;;;;;;;;;;;;;11.64;42.59;95018.50;10306910;28;19949;-79
2024/03/20 15:30:48;;;;;;;;;;;;;;;11.58;40.59;95012.31;10306502;28;20128;-77
2024/03/20 15:35:48;;;;;;;;;;;;;;;11.42;44.70;95026.88;10305865;28;19924;-78
2024/03/20 15:40:50;;;;;;;;;;;;;;;11.38;43.12;95018.53;10304403;28;20039;-81
2024/03/20 15:45:50;;;;;;;;;;;;;;;11.45;42.13;95029.00;10305624;28;19931;-80
2024/03/20 15:50:50;;;;;;;;;;;;;;;11.44;40.36;95039.00;10305515;28;19917;-81
2024/03/20 15:55:53;;;;;;;;;;;;;;;11.34;40.49;95041.66;10306857;28;19918;-81
2024/03/20 16:00:54;;;;;;;;;;;;;;;11.31;39.47;95044.91;10304196;28;20009;-80
2024/03/20 16:05:59;;;;;;;;;;;;;;;11.22;40.79;95041.97;10316268;28;19925;-81
2024/03/20 16:10:59;;;;;;;;;;;;;;;10.98;40.97;95057.81;10288987;28;19913;-79
2024/03/20 16:16:00;;;;;;;;;;;;;;;10.97;41.98;95063.44;10307168;28;19918;-79
2024/03/20 16:21:04;;;;;;;;;;;;;;;10.90;42.44;95061.84;10306017;28;20349;-80
2024/03/20 16:26:31;;;;;;;;;;;;;;;10.78;44.39;95067.44;10282719;28;20445;-81
2024/03/20 16:31:31;;;;;;;;;;;;;;;10.78;45.52;95075.50;10312600;28;19960;-80
2024/03/20 16:36:31;;;;;;;;;;;;;;;10.51;46.84;95077.63;10306815;28;20412;-80
2024/03/20 16:41:32;;;;;;;;;;;;;;;10.36;46.30;95084.53;10302965;28;20381;-80
2024/03/20 16:46:35;;;;;;;;;;;;;;;10.35;46.74;95093.66;10305201;28;20368;-81
2024/03/20 16:51:35;;;;;;;;;;;;;;;10.13;47.47;95095.69;10282884;28;19909;-82
2024/03/20 16:56:35;;;;;;;;;;;;;;;10.00;48.89;95097.75;10286232;28;20674;-78
2024/03/20 17:01:36;;;;;;;;;;;;;;;9.95;47.87;95100.44;10298005;28;19918;-79
2024/03/20 17:06:38;;;;;;;;;;;;;;;9.73;47.36;95103.25;10293530;28;19918;-80
2024/03/20 17:11:38;;;;;;;;;;;;;;;9.65;48.42;95106.41;10285623;28;19999;-76
2024/03/20 17:16:38;;;;;;;;;;;;;;;9.51;49.20;95114.09;10296277;28;20644;-75
2024/03/20 17:21:41;;;;;;;;;;;;;;;9.55;48.47;95124.03;10299346;28;20789;-79
2024/03/20 17:26:41;;;;;;;;;;;;;;;9.61;49.96;95134.81;10302068;28;20599;-75
2024/03/20 17:31:41;;;;;;;;;;;;;;;9.76;48.45;95129.56;10291831;28;19936;-75
2024/03/20 17:36:42;;;;;;;;;;;;;;;9.78;48.51;95137.34;10292055;28;19925;-78
2024/03/20 17:41:43;;;;;;;;;;;;;;;9.71;47.52;95138.41;10274838;28;19913;-76
2024/03/20 17:46:43;;;;;;;;;;;;;;;9.86;47.06;95139.56;10279969;28;20635;-76
2024/03/20 17:51:44;;;;;;;;;;;;;;;9.77;47.67;95149.16;10291777;28;19913;-78
2024/03/20 17:56:44;;;;;;;;;;;;;;;9.61;47.56;95146.34;10276797;28;19960;-77
2024/03/20 18:01:46;;;;;;;;;;;;;;;9.49;48.47;95153.78;10292330;28;19917;-74
2024/03/20 18:06:46;;;;;;;;;;;;;;;9.25;49.16;95159.47;10270504;28;19948;-75
2024/03/20 18:11:47;;;;;;;;;;;;;;;8.98;52.52;95157.59;10293755;28;19928;-74
2024/03/20 18:16:47;;;;;;;;;;;;;;;8.84;52.04;95156.38;10289802;28;20388;-77
2024/03/20 18:21:47;;;;;;;;;;;;;;;8.57;52.82;95167.88;10295452;28;19918;-79
2024/03/20 18:26:48;;;;;;;;;;;;;;;8.41;53.59;95160.66;10299778;28;21041;-81
2024/03/20 18:31:48;;;;;;;;;;;;;;;8.42;55.09;95171.13;10299025;28;20240;-78
2024/03/20 18:36:49;;;;;;;;;;;;;;;8.56;55.35;95166.25;10281618;28;22226;-79
2024/03/20 18:41:50;;;;;;;;;;;;;;;8.44;55.00;95169.03;10299052;28;20004;-79
2024/03/20 18:46:51;;;;;;;;;;;;;;;8.45;56.96;95180.56;10300284;28;20416;-80
2024/03/20 18:51:51;;;;;;;;;;;;;;;8.14;56.65;95180.94;10296397;28;19924;-83
2024/03/20 18:56:52;;;;;;;;;;;;;;;7.92;58.47;95185.44;10300039;28;19921;-85
2024/03/20 19:01:52;;;;;;;;;;;;;;;7.83;57.17;95187.72;10287830;28;19918;-80
2024/03/20 19:06:52;;;;;;;;;;;;;;;7.75;58.74;95182.78;10302991;28;19918;-81
2024/03/20 19:11:53;;;;;;;;;;;;;;;7.60;58.48;95197.53;10302303;28;20630;-80
2024/03/20 19:16:53;;;;;;;;;;;;;;;7.43;59.91;95197.50;10302005;28;19913;-81
2024/03/20 19:21:54;;;;;;;;;;;;;;;7.41;61.81;95199.63;10299745;28;19913;-81
2024/03/20 19:26:54;;;;;;;;;;;;;;;7.44;60.93;95209.84;10296243;28;19956;-81
2024/03/20 19:31:56;;;;;;;;;;;;;;;7.25;61.96;95206.56;10299180;28;20339;-80
2024/03/20 19:36:56;;;;;;;;;;;;;;;7.14;61.96;95212.78;10300629;28;19925;-79
2024/03/20 19:41:57;;;;;;;;;;;;;;;7.04;63.65;95216.06;10293120;28;19909;-76
2024/03/20 19:46:57;;;;;;;;;;;;;;;7.01;64.00;95217.34;10291137;28;20056;-80
2024/03/20 19:51:58;;;;;;;;;;;;;;;6.93;64.46;95235.63;10283119;28;19920;-82
2024/03/20 19:56:58;;;;;;;;;;;;;;;6.91;65.35;95224.38;10277650;28;19977;-78
2024/03/20 20:01:58;;;;;;;;;;;;;;;6.90;66.40;95223.56;10271687;28;19925;-77
2024/03/20 20:07:00;;;;;;;;;;;;;;;6.99;68.28;95224.81;10291950;28;19924;-79
2024/03/20 20:12:02;;;;;;;;;;;;;;;7.05;68.77;95225.72;10294108;28;20293;-78
2024/03/20 20:17:03;;;;;;;;;;;;;;;6.97;67.19;95237.59;10284540;28;20136;-79
2024/03/20 20:22:03;;;;;;;;;;;;;;;7.01;71.80;95228.03;10287810;28;19920;-75
2024/03/20 20:27:03;;;;;;;;;;;;;;;6.98;66.41;95228.53;10270335;28;19919;-77
2024/03/20 20:32:04;;;;;;;;;;;;;;;6.87;68.85;95224.03;10290168;28;19918;-77
2024/03/20 20:37:04;;;;;;;;;;;;;;;7.01;72.21;95222.69;10292329;28;19924;-78
2024/03/20 20:42:05;;;;;;;;;;;;;;;7.07;71.94;95225.47;10289714;28;19928;-77
2024/03/20 20:47:06;;;;;;;;;;;;;;;7.07;68.69;95222.81;10285285;28;20016;-76
2024/03/20 20:52:06;;;;;;;;;;;;;;;6.95;70.66;95223.66;10288201;28;20345;-77
2024/03/20 20:57:07;;;;;;;;;;;;;;;6.92;73.78;95224.16;10287852;28;19918;-76
2024/03/20 21:23:26;;;;;;;;;;;;;;;6.38;79.13;95218.22;10284858;28;19918;-76
2024/03/20 21:28:26;;;;;;;;;;;;;;;6.40;78.93;95219.59;10294734;28;19917;-76
2024/03/20 21:33:26;;;;;;;;;;;;;;;6.57;81.94;95221.56;10292969;28;19918;-77
2024/03/20 21:38:26;;;;;;;;;;;;;;;6.45;84.11;95216.25;10294920;28;19921;-77
2024/03/20 21:43:27;;;;;;;;;;;;;;;6.55;83.42;95221.78;10290488;28;20648;-76
2024/03/20 21:48:27;;;;;;;;;;;;;;;6.52;82.29;95224.09;10292316;28;20003;-77
2024/03/20 21:53:27;;;;;;;;;;;;;;;6.42;84.42;95214.03;10298085;28;20261;-76
2024/03/20 21:58:30;;;;;;;;;;;;;;;6.31;86.26;95221.03;10293998;28;19971;-74
2024/03/20 22:03:30;;;;;;;;;;;;;;;6.47;88.61;95222.16;10295764;28;19953;-78
2024/03/20 22:08:31;;;;;;;;;;;;;;;6.53;85.14;95218.56;10295912;28;20336;-74
2024/03/20 22:13:31;;;;;;;;;;;;;;;6.43;87.27;95221.00;10295715;28;20494;-78
2024/03/20 22:18:31;;;;;;;;;;;;;;;6.44;86.07;95230.66;10294199;28;20011;-76
2024/03/20 22:23:31;;;;;;;;;;;;;;;6.47;89.04;95228.31;10295022;28;19924;-75
2024/03/20 22:28:32;;;;;;;;;;;;;;;6.46;88.88;95231.19;10295023;28;19924;-74
2024/03/20 22:33:32;;;;;;;;;;;;;;;6.54;91.25;95228.19;10290360;28;20384;-75
2024/03/20 22:38:32;;;;;;;;;;;;;;;6.54;93.24;95232.72;10294511;28;19929;-74
2024/03/20 22:43:32;;;;;;;;;;;;;;;6.18;91.14;95245.28;10293467;28;19918;-74
2024/03/20 22:48:36;;;;;;;;;;;;;;;6.05;90.93;95243.66;10275664;28;19920;-76
2024/03/20 22:53:36;;;;;;;;;;;;;;;6.06;92.50;95239.97;10290767;28;19920;-75
2024/03/20 22:58:36;;;;;;;;;;;;;;;5.99;93.09;95242.75;10292679;28;19929;-77
2024/03/20 23:03:37;;;;;;;;;;;;;;;5.96;95.94;95243.19;10283831;28;19928;-76
2024/03/20 23:08:37;;;;;;;;;;;;;;;5.79;97.24;95233.19;10265679;28;19933;-79
2024/03/20 23:13:38;;;;;;;;;;;;;;;5.68;97.38;95241.16;10301669;28;19909;-77
2024/03/20 23:18:38;;;;;;;;;;;;;;;5.76;97.68;95235.47;10293386;28;19933;-74
2024/03/20 23:23:39;;;;;;;;;;;;;;;5.84;99.86;95237.81;10292477;28;20312;-75
2024/03/20 23:28:39;;;;;;;;;;;;;;;5.81;100.00;95227.63;10292006;28;19959;-74
2024/03/20 23:33:39;;;;;;;;;;;;;;;5.77;100.00;95235.25;10291031;28;19910;-74
2024/03/20 23:38:40;;;;;;;;;;;;;;;5.80;100.00;95223.31;10295976;28;19984;-76
2024/03/20 23:43:40;;;;;;;;;;;;;;;5.82;100.00;95222.03;10274187;28;19917;-76
2024/03/20 23:48:40;;;;;;;;;;;;;;;5.79;100.00;95217.19;10290482;28;19913;-75
2024/03/20 23:53:40;;;;;;;;;;;;;;;5.70;100.00;95217.75;10271571;28;19914;-78
2024/03/20 23:58:41;;;;;;;;;;;;;;;5.70;100.00;95207.09;10287898;28;19980;-76
